Disclaimer

Please do not use the information listed here in-flight or in-navigation, as they are not provided to us by the airports but are provided by volunteers, so they might be outdated.

Search


Regions


Airport information page

Radio informations:
KRUG - 120.3 MHz
Automatic Terminal Information Service (ATIS) - 124.8 MHz

Airport informations:
Latitude: 61° 20' 37.30" N
Longitude: 073° 24' 06.63" E
Elevation: 200 feet - 61 meters
Operating hours: Remarks
Operating agency: Civil government, landing fees and diplomatic clearance may be required
Timezone: UTC+5(+6DT) - Last Sunday in March to last Sunday in October
Fuel: N/A

Runway information:
07/25 - 9154 x 148 feet< - >2790 x 45 meters

Recent METARs:
USRR 211630Z 20005MPS 6000 -SHSN SCT009 BKN020CB M03/M03 Q0993 R25/490535 TEMPO 2000 SHSN RMK OBST OBSC QFE739
USRR 211700Z 21005MPS 3100 -SHSN SCT009 BKN024CB M03/M03 Q0992 R25/490535 TEMPO 2000 SHSN RMK OBST OBSC QFE739
USRR 211730Z 22004MPS 7000 -SHSN SCT007 BKN021CB M03/M03 Q0992 R25/490535 TEMPO 2000 SHSN RMK OBST OBSC QFE739

Airport on the map: